createdAt,value
2023-02-17T00:03:24.931Z,100800.03
2023-02-17T00:08:47.091Z,100803.44
2023-02-17T00:14:12.762Z,100800.03
2023-02-17T00:19:34.630Z,100790.66
2023-02-17T00:24:56.659Z,100788.94
2023-02-17T00:30:18.773Z,100789.78
2023-02-17T00:35:40.862Z,100788.09
2023-02-17T00:41:02.809Z,100782.09
2023-02-17T00:46:26.182Z,100779.53
2023-02-17T00:51:48.736Z,100775.28
2023-02-17T00:57:11.020Z,100768.44
2023-02-17T01:02:33.514Z,100760.75
2023-02-17T01:07:56.121Z,100760.78
2023-02-17T01:13:19.500Z,100744.59
2023-02-17T01:18:41.358Z,100750.50
2023-02-17T01:24:06.029Z,100742.84
2023-02-17T01:29:27.979Z,100741.13
2023-02-17T01:34:49.819Z,100735.13
2023-02-17T01:40:14.037Z,100724.03
2023-02-17T01:45:41.628Z,100714.59
2023-02-17T01:51:10.958Z,100721.44
2023-02-17T01:56:35.522Z,100710.28
2023-02-17T02:02:00.535Z,100720.59
2023-02-17T02:07:43.961Z,100711.16
2023-02-17T02:13:07.597Z,100707.78
2023-02-17T02:18:59.907Z,100703.50
2023-02-17T02:24:44.290Z,100706.06
2023-02-17T02:30:21.347Z,100695.84
2023-02-17T02:35:56.340Z,100687.31
2023-02-17T02:41:24.032Z,100688.13
2023-02-17T02:46:45.894Z,100690.66
2023-02-17T02:52:23.505Z,100687.28
2023-02-17T02:58:06.227Z,100682.16
2023-02-17T03:04:09.318Z,100681.31
2023-02-17T03:09:31.894Z,100675.38
2023-02-17T03:15:06.161Z,100689.00
2023-02-17T03:20:32.877Z,100688.09
2023-02-17T03:25:54.812Z,100683.88
2023-02-17T03:31:17.066Z,100679.63
2023-02-17T03:36:39.017Z,100681.31
2023-02-17T03:42:02.243Z,100680.41
2023-02-17T03:47:24.098Z,100672.81
2023-02-17T03:52:46.095Z,100676.19
2023-02-17T03:58:08.181Z,100691.59
2023-02-17T04:03:30.056Z,100679.66
2023-02-17T04:08:51.990Z,100671.16
2023-02-17T04:14:13.891Z,100658.28
2023-02-17T04:19:35.801Z,100650.69
2023-02-17T04:24:57.688Z,100659.16
2023-02-17T04:30:20.219Z,100676.28
2023-02-17T04:35:42.632Z,100667.75
2023-02-17T04:41:05.125Z,100666.00
2023-02-17T04:46:27.103Z,100641.25
2023-02-17T04:51:48.984Z,100638.69
2023-02-17T04:57:10.899Z,100635.31
2023-02-17T05:02:32.992Z,100631.03
2023-02-17T05:07:54.826Z,100636.97
2023-02-17T05:13:16.769Z,100619.91
2023-02-17T05:18:38.683Z,100613.06
2023-02-17T05:24:00.477Z,100618.19
2023-02-17T05:29:22.327Z,100605.41
2023-02-17T05:34:44.335Z,100620.78
2023-02-17T05:40:07.145Z,100604.59
2023-02-17T05:45:29.002Z,100605.50
2023-02-17T05:50:50.886Z,100598.66
2023-02-17T05:56:12.754Z,100601.28
2023-02-17T06:01:37.073Z,100589.22
2023-02-17T06:06:59.210Z,100591.75
2023-02-17T06:12:21.449Z,100586.66
2023-02-17T06:17:43.360Z,100598.63
2023-02-17T06:23:05.349Z,100590.97
2023-02-17T06:28:28.327Z,100592.63
2023-02-17T06:33:50.190Z,100591.81
2023-02-17T06:39:12.064Z,100592.69
2023-02-17T06:44:33.908Z,100593.53
2023-02-17T06:49:55.801Z,100590.00
2023-02-17T06:55:17.691Z,100584.03
2023-02-17T07:00:39.531Z,100583.13
2023-02-17T07:06:01.382Z,100572.75
2023-02-17T07:11:23.354Z,100569.28
2023-02-17T07:16:45.246Z,100557.97
2023-02-17T07:22:07.215Z,100568.34
2023-02-17T07:27:29.078Z,100561.16
2023-02-17T07:32:50.962Z,100550.88
2023-02-17T07:38:12.923Z,100560.25
2023-02-17T07:43:35.021Z,100559.38
2023-02-17T07:48:57.863Z,100550.66
2023-02-17T07:54:19.778Z,100554.22
2023-02-17T07:59:41.602Z,100550.91
2023-02-17T08:05:03.515Z,100549.25
2023-02-17T08:10:25.351Z,100555.84
2023-02-17T08:15:47.247Z,100537.81
2023-02-17T08:21:09.086Z,100540.34
2023-02-17T08:26:31.106Z,100545.28
2023-02-17T08:31:53.502Z,100533.44
2023-02-17T08:37:15.601Z,100536.63
2023-02-17T08:42:37.429Z,100516.81
2023-02-17T08:47:59.257Z,100524.53
2023-02-17T08:53:21.152Z,100518.34
2023-02-17T08:58:43.022Z,100516.81
2023-02-17T09:04:08.326Z,100520.66
2023-02-17T09:09:30.205Z,100506.63
2023-02-17T09:14:52.086Z,100507.25
2023-02-17T09:20:24.250Z,100509.06
2023-02-17T09:25:47.281Z,100489.97
2023-02-17T09:31:11.823Z,100497.72
2023-02-17T09:36:38.917Z,100493.41
2023-02-17T09:42:00.774Z,100492.13
2023-02-17T09:47:27.007Z,100479.28
2023-02-17T09:53:11.537Z,100466.78
2023-02-17T09:58:40.640Z,100459.78
2023-02-17T10:04:26.101Z,100465.97
2023-02-17T10:09:52.469Z,100452.44
2023-02-17T10:15:19.112Z,100444.88
2023-02-17T10:20:47.505Z,100443.69
2023-02-17T10:26:20.714Z,100452.41
2023-02-17T10:31:47.079Z,100441.06
2023-02-17T10:37:11.680Z,100433.38
2023-02-17T10:42:38.851Z,100424.09
2023-02-17T10:48:12.759Z,100408.25
2023-02-17T10:53:39.752Z,100387.78
2023-02-17T10:59:19.179Z,100383.41
2023-02-17T11:04:43.670Z,100377.75
2023-02-17T11:10:23.147Z,100366.44
2023-02-17T11:15:47.628Z,100348.06
2023-02-17T11:21:11.313Z,100335.31
2023-02-17T11:26:35.518Z,100331.13
2023-02-17T11:31:59.187Z,100319.56
2023-02-17T11:37:23.367Z,100303.22
2023-02-17T11:42:56.133Z,100281.09
2023-02-17T11:48:57.556Z,100266.84
2023-02-17T11:54:25.231Z,100255.03
2023-02-17T12:00:27.208Z,100253.13
2023-02-17T12:06:07.747Z,100240.94
2023-02-17T12:11:43.880Z,100221.97
2023-02-17T12:17:24.340Z,100215.94
2023-02-17T12:23:13.383Z,100195.72
2023-02-17T12:28:53.630Z,100173.56
2023-02-17T12:34:18.372Z,100159.06
2023-02-17T12:39:50.048Z,100129.88
2023-02-17T12:45:14.885Z,100131.19
2023-02-17T12:50:54.748Z,100145.63
2023-02-17T12:56:25.352Z,100126.19
2023-02-17T13:01:59.059Z,100117.66
2023-02-17T13:07:36.065Z,100113.34
2023-02-17T13:13:11.949Z,100093.59
2023-02-17T13:18:36.620Z,100094.84
2023-02-17T13:24:01.043Z,100079.81
2023-02-17T13:29:25.841Z,100070.06
2023-02-17T13:35:00.653Z,100062.63
2023-02-17T13:40:22.448Z,100059.41
2023-02-17T13:46:07.310Z,100047.63
2023-02-17T13:51:30.877Z,100042.50
2023-02-17T13:56:53.696Z,100047.84
2023-02-17T14:02:35.155Z,100037.59
2023-02-17T14:08:06.540Z,100030.72
2023-02-17T14:13:29.286Z,100032.44
2023-02-17T14:19:08.942Z,100006.69
2023-02-17T14:24:37.621Z,99987.78
2023-02-17T14:29:59.580Z,99981.03
2023-02-17T14:35:23.567Z,99950.28
2023-02-17T14:40:45.474Z,99945.16
2023-02-17T14:46:07.625Z,99926.97
2023-02-17T14:51:36.537Z,99911.69
2023-02-17T14:57:11.843Z,99891.91
2023-02-17T15:02:37.474Z,99884.09
2023-02-17T15:08:01.062Z,99882.38
2023-02-17T15:13:22.940Z,99867.97
2023-02-17T15:18:44.781Z,99857.63
2023-02-17T15:24:15.837Z,99852.47
2023-02-17T15:29:37.700Z,99844.06
2023-02-17T15:34:59.850Z,99829.34
2023-02-17T15:40:24.347Z,99828.69
2023-02-17T15:45:46.522Z,99800.63
2023-02-17T15:51:11.628Z,99802.81
2023-02-17T15:56:45.387Z,99778.03
2023-02-17T16:02:21.459Z,99774.41
2023-02-17T16:07:43.902Z,99764.22
2023-02-17T16:13:05.872Z,99761.53
2023-02-17T16:18:27.692Z,99743.72
2023-02-17T16:23:49.804Z,99740.13
2023-02-17T16:29:21.961Z,99734.69
2023-02-17T16:34:44.005Z,99710.28
2023-02-17T16:40:15.525Z,99705.06
2023-02-17T16:45:37.506Z,99702.63
2023-02-17T16:50:59.538Z,99697.31
2023-02-17T16:56:25.268Z,99677.78
2023-02-17T17:01:47.817Z,99673.53
2023-02-17T17:07:14.023Z,99659.66
2023-02-17T17:12:35.874Z,99642.47
2023-02-17T17:17:58.991Z,99623.66
2023-02-17T17:23:20.791Z,99618.81
2023-02-17T17:28:42.657Z,99618.63
2023-02-17T17:34:04.501Z,99589.44
2023-02-17T17:39:26.432Z,99578.97
2023-02-17T17:44:48.293Z,99567.91
2023-02-17T17:50:16.809Z,99543.09
2023-02-17T17:55:38.668Z,99541.22
2023-02-17T18:01:00.728Z,99530.66
2023-02-17T18:06:47.399Z,99537.03
2023-02-17T18:12:16.001Z,99524.88
2023-02-17T18:17:40.502Z,99506.78
2023-02-17T18:23:02.554Z,99498.38
2023-02-17T18:28:24.448Z,99505.94
2023-02-17T18:33:46.463Z,99483.72
2023-02-17T18:39:08.356Z,99469.03
2023-02-17T18:44:30.193Z,99463.06
2023-02-17T18:49:52.245Z,99453.56
2023-02-17T18:55:14.903Z,99459.38
2023-02-17T19:00:36.751Z,99458.94
2023-02-17T19:05:58.703Z,99448.19
2023-02-17T19:11:22.460Z,99440.38
2023-02-17T19:16:44.347Z,99432.34
2023-02-17T19:22:07.226Z,99432.75
2023-02-17T19:27:29.388Z,99415.59
2023-02-17T19:32:51.218Z,99424.69
2023-02-17T19:38:13.095Z,99413.22
2023-02-17T19:43:35.686Z,99404.78
2023-02-17T19:48:57.495Z,99395.59
2023-02-17T19:54:19.401Z,99409.13
2023-02-17T19:59:41.295Z,99408.66
2023-02-17T20:05:03.999Z,99414.13
2023-02-17T20:10:25.835Z,99406.72
2023-02-17T20:15:47.730Z,99394.31
2023-02-17T20:21:11.481Z,99381.09
2023-02-17T20:26:38.167Z,99380.47
2023-02-17T20:32:00.663Z,99370.00
2023-02-17T20:37:22.634Z,99382.22
2023-02-17T20:42:44.519Z,99348.28
2023-02-17T20:48:07.048Z,99370.41
2023-02-17T20:53:28.863Z,99361.63
2023-02-17T20:58:51.933Z,99364.34
2023-02-17T21:04:13.894Z,99353.91
2023-02-17T21:09:35.746Z,99347.69
2023-02-17T21:14:57.604Z,99330.59
2023-02-17T21:20:21.681Z,99328.22
2023-02-17T21:25:45.516Z,99333.09
2023-02-17T21:31:07.962Z,99324.41
2023-02-17T21:36:30.131Z,99294.09
2023-02-17T21:41:51.990Z,99308.44
2023-02-17T21:47:14.429Z,99319.59
2023-02-17T21:52:36.302Z,99324.44
2023-02-17T21:57:58.703Z,99315.56
2023-02-17T22:03:20.647Z,99330.75
2023-02-17T22:08:42.567Z,99328.50
2023-02-17T22:14:07.432Z,99346.81
2023-02-17T22:19:31.369Z,99333.75
2023-02-17T22:24:53.468Z,99335.03
2023-02-17T22:30:15.696Z,99342.13
2023-02-17T22:35:37.568Z,99329.31
2023-02-17T22:41:00.009Z,99320.88
2023-02-17T22:46:24.916Z,99321.22
2023-02-17T22:51:46.822Z,99322.63
2023-02-17T22:57:08.671Z,99343.50
2023-02-17T23:02:34.265Z,99346.41
2023-02-17T23:07:56.180Z,99359.66
2023-02-17T23:13:18.096Z,99342.78
2023-02-17T23:18:40.418Z,99354.31
2023-02-17T23:24:03.090Z,99361.91
2023-02-17T23:29:24.937Z,99369.31
2023-02-17T23:34:46.766Z,99367.03
2023-02-17T23:40:10.176Z,99368.81
2023-02-17T23:45:33.031Z,99380.16
2023-02-17T23:50:59.326Z,99382.34
2023-02-17T23:56:27.788Z,99371.44
